Latest Weather Observations for Mt Wellington

IDT60901

Issued at 8:25 pm EST Wednesday 16 April 2014 (issued every 10 minutes, with the page automatically refreshed every 10 minutes)

About weather observations | Map of Hobart area stations | Latest observations for Hobart area | Other Formats
Station Details ID: 094087 Name: MOUNT WELLINGTON Lat: -42.90 Lon: 147.24 Height: 1260.47 m
Data from the previous 72 hours. | See also: Recent months at Mt Wellington
Date/Time
EST
Tmp

°C
App
Tmp
°C
Dew
Point
°C
Rel
Hum
%
Delta-T

°C
Wind Press
QNH
hPa
Press
MSL
hPa
Rain
since
9 am
mm
Dir
 
Spd
km/h
Gust
km/h
Spd
kts
Gust
kts
16/08:00pm 6.1 1.3 5.4 95 0.3 NNW 20 24 11 13 - - 0.0
16/07:30pm 6.2 1.6 5.6 96 0.3 NNW 19 22 10 12 - - 0.0
16/07:00pm 6.1 2.7 5.8 98 0.1 N 13 17 7 9 - - 0.0
16/06:30pm 6.4 3.0 6.1 98 0.1 N 13 17 7 9 - - 0.0
16/06:00pm 6.6 4.0 6.3 98 0.1 N 9 13 5 7 - - 0.0
16/05:30pm 6.6 2.4 5.9 95 0.3 N 17 20 9 11 - - 0.0
16/05:00pm 7.0 2.8 5.8 92 0.6 N 17 20 9 11 - - 0.0
16/04:30pm 7.3 3.6 6.1 92 0.6 N 15 19 8 10 - - 0.0
16/04:00pm 7.4 3.6 5.9 90 0.7 N 15 19 8 10 - - 0.0
16/03:30pm 7.4 4.5 6.3 93 0.5 N 11 17 6 9 - - 0.0
16/03:00pm 7.5 4.0 5.5 87 1.0 N 13 17 7 9 - - 0.0
16/02:30pm 7.4 3.5 5.5 88 0.9 N 15 22 8 12 - - 0.0
16/02:00pm 7.6 4.2 5.7 88 0.9 N 13 20 7 11 - - 0.0
16/01:30pm 7.9 4.1 6.0 88 0.9 N 15 24 8 13 - - 0.0
16/01:00pm 7.1 2.5 5.7 91 0.7 N 19 24 10 13 - - 0.0
16/12:30pm 7.0 2.8 5.5 90 0.7 N 17 24 9 13 - - 0.0
16/12:00pm 7.0 2.4 5.5 90 0.7 N 19 32 10 17 - - 0.0
16/11:30am 7.7 3.0 6.2 90 0.7 N 20 30 11 16 - - 0.0
16/11:00am 7.2 1.9 5.0 86 1.0 N 22 32 12 17 - - 0.0
16/10:30am 6.7 0.5 4.5 86 1.0 N 26 33 14 18 - - 0.0
16/10:00am 6.4 -0.2 4.2 86 1.0 N 28 37 15 20 - - 0.0
16/09:30am 6.1 0.1 5.1 93 0.5 N 26 37 14 20 - - 0.0
16/09:00am 5.6 -0.8 5.0 96 0.3 N 28 33 15 18 - - 0.0
16/08:30am 5.3 -0.8 5.0 98 0.1 N 26 33 14 18 - - 0.0
16/08:00am 4.8 -1.4 4.5 98 0.1 N 26 33 14 18 - - 0.0
16/07:30am 4.3 -1.9 4.2 99 0.0 N 26 30 14 16 - - 0.0
16/07:00am 3.9 -2.4 3.8 99 0.0 N 26 32 14 17 - - 0.0
16/06:30am 3.7 -1.9 3.6 99 0.0 N 22 26 12 14 - - 0.0
16/06:00am 3.9 -1.6 3.8 99 0.0 N 22 28 12 15 - - 0.0
16/05:30am 4.1 -1.4 4.0 99 0.0 N 22 26 12 14 - - 0.0
16/05:00am 4.4 -1.4 4.3 99 0.0 N 24 28 13 15 - - 0.0
16/04:30am 4.4 -1.4 4.3 99 0.0 N 24 26 13 14 - - 0.0
16/04:00am 4.3 -1.9 4.2 99 0.0 N 26 33 14 18 - - 0.0
16/03:30am 4.3 -2.3 4.2 99 0.0 N 28 32 15 17 - - 0.0
16/03:00am 4.2 -2.0 4.1 99 0.0 N 26 32 14 17 - - 0.0
16/02:30am 4.2 -2.0 4.1 99 0.0 N 26 32 14 17 - - 0.0
16/02:00am 4.0 -2.7 3.9 99 0.0 N 28 33 15 18 - - 0.0
16/01:30am 3.9 -2.0 3.8 99 0.0 N 24 32 13 17 - - 0.0
16/01:00am 3.9 -2.4 3.8 99 0.0 N 26 30 14 16 - - 0.0
16/12:30am 3.8 -2.5 3.7 99 0.0 N 26 32 14 17 - - 0.0
16/12:00am 3.8 -2.5 3.7 99 0.0 N 26 30 14 16 - - 0.0
 
Date/Time
EST
Tmp

°C
App
Tmp
°C
Dew
Point
°C
Rel
Hum
%
Delta-T

°C
Wind Press
QNH
hPa
Press
MSL
hPa
Rain
since
9 am
mm
Dir
 
Spd
km/h
Gust
km/h
Spd
kts
Gust
kts
15/11:30pm 3.8 -1.8 3.7 99 0.0 N 22 26 12 14 - - 0.0
15/11:00pm 3.8 -1.8 3.5 98 0.1 N 22 26 12 14 - - 0.0
15/10:30pm 3.7 -1.5 3.4 98 0.1 N 20 26 11 14 - - 0.0
15/10:00pm 3.8 -1.4 3.5 98 0.1 N 20 28 11 15 - - 0.0
15/09:30pm 3.8 -1.8 3.5 98 0.1 N 22 28 12 15 - - 0.0
15/09:00pm 3.8 -1.4 3.5 98 0.1 N 20 24 11 13 - - 0.0
15/08:30pm 3.6 -1.5 3.3 98 0.1 N 19 20 10 11 - - 0.0
15/08:00pm 3.6 -1.1 3.3 98 0.1 N 17 20 9 11 - - 0.0
15/07:30pm 3.5 -1.2 3.2 98 0.1 N 17 19 9 10 - - 0.0
15/07:00pm 3.5 -0.8 3.2 98 0.1 NNE 15 19 8 10 - - 0.0
15/06:30pm 3.6 -0.7 3.3 98 0.1 NNE 15 19 8 10 - - 0.0
15/06:00pm 3.8 -0.8 3.5 98 0.1 NE 17 22 9 12 - - 0.0
15/05:30pm 3.9 -0.7 3.5 97 0.2 NE 17 22 9 12 - - 0.0
15/05:00pm 4.1 -0.1 3.7 97 0.2 ENE 15 19 8 10 - - 0.0
15/04:30pm 4.2 0.3 3.6 96 0.3 ENE 13 17 7 9 - - 0.0
15/04:00pm 4.6 0.8 3.7 94 0.4 ENE 13 19 7 10 - - 0.0
15/03:30pm 4.7 1.6 3.7 93 0.5 E 9 13 5 7 - - 0.0
15/03:00pm 4.1 1.6 3.7 97 0.2 E 6 13 3 7 - - 0.0
15/02:30pm 4.3 1.8 4.0 98 0.1 E 6 9 3 5 - - 0.0
15/02:00pm 4.5 2.1 4.1 97 0.2 E 6 11 3 6 - - 0.0
15/01:30pm 4.3 1.8 3.7 96 0.3 ENE 6 9 3 5 - - 0.0
15/01:00pm 4.9 2.3 4.0 94 0.4 ENE 7 11 4 6 - - 0.0
15/12:30pm 4.2 1.2 3.9 98 0.1 SSE 9 13 5 7 - - 0.0
15/12:00pm 4.2 1.2 3.9 98 0.1 S 9 13 5 7 - - 0.0
15/11:30am 4.6 1.7 4.5 99 0.0 WSW 9 17 5 9 - - 0.0
15/11:00am 3.9 0.8 3.8 99 0.0 SW 9 13 5 7 - - 0.0
15/10:30am 4.1 1.5 4.0 99 0.0 SW 7 11 4 6 - - 0.0
15/10:00am 3.3 0.5 3.2 99 0.0 SSW 7 9 4 5 - - 0.0
15/09:30am 3.3 0.1 3.2 99 0.0 SSW 9 15 5 8 - - 0.0
15/09:00am 2.9 -0.7 2.8 99 0.0 SSW 11 15 6 8 - - 1.4
15/08:30am 2.9 -1.1 2.8 99 0.0 SSW 13 17 7 9 - - 1.4
15/08:00am 2.5 -1.6 2.4 99 0.0 SW 13 17 7 9 - - 1.4
15/07:30am 2.5 -1.2 2.4 99 0.0 SW 11 17 6 9 - - 1.4
15/07:00am 2.6 -0.7 2.5 99 0.0 SW 9 13 5 7 - - 1.4
15/06:30am 2.8 -0.5 2.7 99 0.0 SSW 9 15 5 8 - - 1.2
15/06:00am 2.7 -1.3 2.6 99 0.0 SW 13 17 7 9 - - 1.2
15/05:30am 2.9 0.0 2.8 99 0.0 WSW 7 11 4 6 - - 1.2
15/05:00am 2.8 -0.1 2.7 99 0.0 SSW 7 9 4 5 - - 1.2
15/04:30am 2.7 -1.0 2.6 99 0.0 WSW 11 19 6 10 - - 1.2
15/04:00am 2.7 -0.6 2.6 99 0.0 SW 9 11 5 6 - - 1.2
15/03:30am 3.2 -1.1 3.1 99 0.0 W 15 19 8 10 - - 1.2
15/03:00am 3.3 -0.6 3.2 99 0.0 WSW 13 19 7 10 - - 1.2
15/02:30am 3.2 -0.4 3.1 99 0.0 WSW 11 15 6 8 - - 1.2
15/02:00am 3.1 -1.2 3.0 99 0.0 W 15 17 8 9 - - 1.0
15/01:30am 3.4 -0.9 3.3 99 0.0 WSW 15 17 8 9 - - 1.0
15/01:00am 3.2 -0.8 3.1 99 0.0 W 13 15 7 8 - - 1.0
15/12:30am 3.3 -0.6 3.2 99 0.0 W 13 19 7 10 - - 1.0
15/12:00am 3.2 -0.8 3.1 99 0.0 SW 13 17 7 9 - - 1.0
 
Date/Time
EST
Tmp

°C
App
Tmp
°C
Dew
Point
°C
Rel
Hum
%
Delta-T

°C
Wind Press
QNH
hPa
Press
MSL
hPa
Rain
since
9 am
mm
Dir
 
Spd
km/h
Gust
km/h
Spd
kts
Gust
kts
14/11:30pm 3.3 0.1 3.0 98 0.1 SW 9 13 5 7 - - 1.0
14/11:00pm 3.4 -0.2 3.1 98 0.1 SW 11 15 6 8 - - 0.8
14/10:30pm 3.5 -0.1 3.2 98 0.1 SSW 11 15 6 8 - - 0.8
14/10:00pm 3.9 0.8 3.8 99 0.0 S 9 11 5 6 - - 0.8
14/09:30pm 3.8 -0.1 3.5 98 0.1 S 13 17 7 9 - - 0.6
14/09:00pm 4.0 0.2 3.7 98 0.1 S 13 19 7 10 - - 0.6
14/08:30pm 4.1 -0.9 3.8 98 0.1 S 19 22 10 12 - - 0.4
14/08:00pm 4.3 -0.2 4.0 98 0.1 SSW 17 20 9 11 - - 0.4
14/07:30pm 4.8 1.1 4.5 98 0.1 S 13 19 7 10 - - 0.4
14/07:00pm 5.1 1.5 4.8 98 0.1 S 13 17 7 9 - - 0.2
14/06:30pm 5.4 1.8 5.1 98 0.1 S 13 15 7 8 - - 0.0
14/06:00pm 5.6 2.1 5.3 98 0.1 SW 13 17 7 9 - - 0.0
14/05:30pm 6.1 2.7 5.8 98 0.1 WSW 13 17 7 9 - - 0.0
14/05:00pm 6.3 2.5 6.0 98 0.1 SW 15 19 8 10 - - 0.0
14/04:30pm 6.5 2.0 6.1 97 0.2 WSW 19 22 10 12 - - 0.0
14/04:00pm 7.1 3.0 6.2 94 0.4 SW 17 20 9 11 - - 0.0
14/03:30pm 7.5 3.9 6.6 94 0.4 SW 15 24 8 13 - - 0.0
14/03:00pm 8.4 5.1 6.2 86 1.1 SW 13 17 7 9 - - 0.0
14/02:30pm 8.8 5.3 5.4 79 1.7 SW 13 19 7 10 - - 0.0
14/02:00pm 8.3 4.8 5.4 82 1.4 WSW 13 19 7 10 - - 0.0
14/01:30pm 8.2 6.0 6.2 87 1.0 S 7 19 4 10 - - 0.0
14/01:00pm 9.1 6.3 5.3 77 1.8 WSW 9 15 5 8 - - 0.0
14/12:30pm 9.6 6.2 6.0 78 1.8 SW 13 22 7 12 - - 0.0
14/12:00pm 8.8 5.0 5.7 81 1.5 SW 15 20 8 11 - - 0.0
14/11:30am 8.2 4.0 5.5 83 1.3 SW 17 20 9 11 - - 0.0
14/11:00am 7.6 3.8 5.7 88 0.9 SW 15 20 8 11 - - 0.0
14/10:30am 6.7 2.8 5.5 92 0.6 SW 15 19 8 10 - - 0.0
14/10:00am 6.6 3.5 5.7 94 0.4 SSW 11 15 6 8 - - 0.0
14/09:30am 6.9 2.8 6.3 96 0.3 SW 17 19 9 10 - - 0.0
14/09:00am 5.8 1.9 5.4 97 0.2 SW 15 20 8 11 - - 0.2
14/08:30am 6.1 3.4 5.7 97 0.2 S 9 17 5 9 - - 0.2
14/08:00am 5.3 0.4 5.2 99 0.0 SSW 20 28 11 15 - - 0.2
14/07:30am 5.2 -1.6 5.1 99 0.0 SSW 30 35 16 19 - - 0.2
14/07:00am 5.6 -1.1 5.5 99 0.0 SSW 30 35 16 19 - - 0.2
14/06:30am 5.1 -1.3 5.0 99 0.0 SSW 28 32 15 17 - - 0.2
14/06:00am 5.1 -1.0 5.0 99 0.0 SSW 26 30 14 16 - - 0.2
14/05:30am 5.3 -0.7 5.2 99 0.0 SSW 26 32 14 17 - - 0.2
14/05:00am 4.8 -1.3 4.7 99 0.0 SSW 26 30 14 16 - - 0.2
14/04:30am 5.0 -1.8 4.9 99 0.0 SSW 30 32 16 17 - - 0.2
14/04:00am 5.0 -1.5 4.7 98 0.1 SW 28 33 15 18 - - 0.0
14/03:30am 4.9 -0.9 4.6 98 0.1 SSW 24 28 13 15 - - 0.0
14/03:00am 5.1 -0.6 4.8 98 0.1 SW 24 28 13 15 - - 0.0
14/02:30am 5.0 -1.2 4.3 95 0.3 SSW 26 30 14 16 - - 0.0
14/02:00am 4.8 -1.0 4.5 98 0.1 SW 24 28 13 15 - - 0.0
14/01:30am 4.6 -0.8 4.3 98 0.1 SW 22 24 12 13 - - 0.0
14/01:00am 4.8 -0.2 4.5 98 0.1 SW 20 22 11 12 - - 0.0
14/12:30am 4.9 0.1 4.6 98 0.1 SW 19 22 10 12 - - 0.0
14/12:00am 5.0 0.2 4.7 98 0.1 SW 19 22 10 12 - - 0.0
 
Date/Time
EST
Tmp

°C
App
Tmp
°C
Dew
Point
°C
Rel
Hum
%
Delta-T

°C
Wind Press
QNH
hPa
Press
MSL
hPa
Rain
since
9 am
mm
Dir
 
Spd
km/h
Gust
km/h
Spd
kts
Gust
kts
13/11:30pm 5.1 0.3 4.8 98 0.1 WSW 19 22 10 12 - - 0.0
13/11:00pm 5.3 0.9 5.0 98 0.1 WSW 17 20 9 11 - - 0.0
13/10:30pm 5.4 0.7 5.1 98 0.1 SW 19 26 10 14 - - 0.0
13/10:00pm 5.4 0.7 5.1 98 0.1 WSW 19 28 10 15 - - 0.0
13/09:30pm 5.4 0.7 5.1 98 0.1 WSW 19 24 10 13 - - 0.0
13/09:00pm 5.3 0.6 5.0 98 0.1 SW 19 24 10 13 - - 0.0
13/08:30pm 5.3 0.4 5.0 98 0.1 SW 20 26 11 14 - - 0.0

Latest Capital City Observations: Canberra | Sydney | Melbourne | Brisbane | Adelaide | Perth | Hobart | Darwin

Other Formats:

Comma delimited format used in spreadsheet applications
http://www.bom.gov.au/fwo/IDT60901/IDT60901.95979.axf

JavaScript Object Notation format (JSON) in row-major order
http://www.bom.gov.au/fwo/IDT60901/IDT60901.95979.json